Time;durP1;ratioP1;P1;durP2;ratioP2;P2;SDS_P1;SDS_P2;PMS_P1;PMS_P2;Temp;Humidity;BMP_temperature;BMP_pressure;BME280_temperature;BME280_humidity;BME280_pressure;Samples;Min_cycle;Max_cycle;Signal;HPM_P1;HPM_P2
2022/09/14 00:01:07;;;;;;;;;14.00;11.67;;;;;;;;6213057;22;45767;-92
2022/09/14 00:03:33;;;;;;;;;11.33;11.33;;;;;;;;6185552;22;45395;-92
2022/09/14 00:06:08;;;;;;;;;16.33;13.33;;;;;;;;6185440;22;48037;-92
2022/09/14 00:08:34;;;;;;;;;11.33;9.00;;;;;;;;6185354;22;45339;-92
2022/09/14 00:11:03;;;;;;;;;13.00;11.67;;;;;;;;6185509;22;45328;-92
2022/09/14 00:13:28;;;;;;;;;14.00;14.00;;;;;;;;6184567;22;45414;-93
2022/09/14 00:15:53;;;;;;;;;12.67;12.00;;;;;;;;6184698;22;46904;-92
2022/09/14 00:18:18;;;;;;;;;11.00;9.67;;;;;;;;6185253;22;45949;-92
2022/09/14 00:20:43;;;;;;;;;11.00;10.00;;;;;;;;6185334;22;45410;-92
2022/09/14 00:23:09;;;;;;;;;13.67;13.67;;;;;;;;6185759;22;45417;-92
2022/09/14 00:25:34;;;;;;;;;9.33;9.33;;;;;;;;6185063;22;46845;-92
2022/09/14 00:27:59;;;;;;;;;12.33;11.00;;;;;;;;6191870;22;45440;-91
2022/09/14 00:30:24;;;;;;;;;12.00;11.67;;;;;;;;6194834;22;45375;-92
2022/09/14 00:32:50;;;;;;;;;9.00;9.00;;;;;;;;6194875;22;45362;-91
2022/09/14 00:35:15;;;;;;;;;12.67;12.00;;;;;;;;6188834;22;47702;-92
2022/09/14 00:37:42;;;;;;;;;9.67;9.00;;;;;;;;6184946;22;45944;-93
2022/09/14 00:40:07;;;;;;;;;10.00;10.00;;;;;;;;6184883;22;45364;-92
2022/09/14 00:42:33;;;;;;;;;11.00;9.67;;;;;;;;6184644;22;45431;-92
2022/09/14 00:45:18;;;;;;;;;12.00;12.00;;;;;;;;6184999;22;48055;-92
2022/09/14 00:47:46;;;;;;;;;12.67;9.33;;;;;;;;6178238;22;45753;-92
2022/09/14 00:50:11;;;;;;;;;15.00;10.67;;;;;;;;6184674;22;45344;-92
2022/09/14 00:52:39;;;;;;;;;11.00;9.00;;;;;;;;6184645;22;45357;-92
2022/09/14 00:55:07;;;;;;;;;12.00;12.00;;;;;;;;6211795;22;46518;-93
2022/09/14 00:57:34;;;;;;;;;12.67;11.33;;;;;;;;6183875;22;45623;-92
2022/09/14 01:00:00;;;;;;;;;11.33;10.33;;;;;;;;6184516;22;45331;-91
2022/09/14 01:02:26;;;;;;;;;7.67;7.33;;;;;;;;6185567;22;45346;-93
2022/09/14 01:04:51;;;;;;;;;12.00;9.00;;;;;;;;6194508;22;47138;-92
2022/09/14 01:07:23;;;;;;;;;9.33;9.33;;;;;;;;6221873;22;45249;-92
2022/09/14 01:10:07;;;;;;;;;10.00;9.00;;;;;;;;6221876;22;45149;-92
2022/09/14 01:12:44;;;;;;;;;8.00;8.00;;;;;;;;6184443;22;45404;-92
2022/09/14 01:15:12;;;;;;;;;9.50;9.50;;;;;;;;6184376;22;48685;-92
2022/09/14 01:17:56;;;;;;;;;9.00;8.00;;;;;;;;6184420;22;45418;-92
2022/09/14 01:20:32;;;;;;;;;9.00;8.00;;;;;;;;6184688;22;45301;-92
2022/09/14 01:23:07;;;;;;;;;8.00;7.67;;;;;;;;6184724;22;45288;-93
2022/09/14 01:25:38;;;;;;;;;7.67;7.67;;;;;;;;6184121;22;47909;-93
2022/09/14 01:28:08;;;;;;;;;8.67;8.00;;;;;;;;6184105;22;45229;-91
2022/09/14 01:30:34;;;;;;;;;7.00;7.00;;;;;;;;6185107;22;45367;-92
2022/09/14 01:33:04;;;;;;;;;8.00;6.00;;;;;;;;6184944;22;45779;-92
2022/09/14 01:35:36;;;;;;;;;9.00;8.67;;;;;;;;6184541;22;47757;-93
2022/09/14 01:38:04;;;;;;;;;4.67;4.67;;;;;;;;6211846;22;45381;-91
2022/09/14 01:40:32;;;;;;;;;6.33;6.33;;;;;;;;6190352;22;45357;-92
2022/09/14 01:43:01;;;;;;;;;6.00;5.00;;;;;;;;6194594;22;45304;-92
2022/09/14 01:45:28;;;;;;;;;7.33;5.67;;;;;;;;6220026;22;45405;-92
2022/09/14 01:47:56;;;;;;;;;4.00;4.00;;;;;;;;6191773;22;46359;-92
2022/09/14 01:50:26;;;;;;;;;7.67;6.00;;;;;;;;6184304;22;45268;-91
2022/09/14 01:52:58;;;;;;;;;5.00;5.00;;;;;;;;6184570;22;45426;-92
2022/09/14 01:55:30;;;;;;;;;4.67;4.00;;;;;;;;6184079;22;47363;-93
2022/09/14 01:58:01;;;;;;;;;4.00;4.00;;;;;;;;6184033;22;45501;-92
2022/09/14 02:00:27;;;;;;;;;2.00;2.00;;;;;;;;6183770;22;45426;-92
2022/09/14 02:02:54;;;;;;;;;4.00;4.00;;;;;;;;6211844;22;45354;-92
2022/09/14 02:05:41;;;;;;;;;3.00;3.00;;;;;;;;6211147;22;46392;-92
2022/09/14 02:08:07;;;;;;;;;4.00;2.00;;;;;;;;6183823;22;45284;-91
2022/09/14 02:10:33;;;;;;;;;3.00;3.00;;;;;;;;6211606;22;45316;-91
2022/09/14 02:12:59;;;;;;;;;4.00;3.00;;;;;;;;6183817;22;45551;-91
2022/09/14 02:15:27;;;;;;;;;3.00;3.00;;;;;;;;6210799;22;46672;-90
2022/09/14 02:17:52;;;;;;;;;2.67;2.67;;;;;;;;6185786;22;45453;-90
2022/09/14 02:20:22;;;;;;;;;2.00;2.00;;;;;;;;6215971;22;45481;-90
2022/09/14 02:22:49;;;;;;;;;2.67;2.67;;;;;;;;6187749;22;45339;-91
2022/09/14 02:25:14;;;;;;;;;5.67;4.00;;;;;;;;6191938;22;48293;-90
2022/09/14 02:27:39;;;;;;;;;3.33;3.33;;;;;;;;6187719;22;45337;-90
2022/09/14 02:30:05;;;;;;;;;4.00;2.67;;;;;;;;6184249;22;45338;-92
2022/09/14 02:32:33;;;;;;;;;2.00;2.00;;;;;;;;6183998;22;45502;-91
2022/09/14 02:35:26;;;;;;;;;5.00;2.33;;;;;;;;6211546;22;45446;-91
2022/09/14 02:37:54;;;;;;;;;2.67;2.67;;;;;;;;6206077;22;45592;-92
2022/09/14 02:40:36;;;;;;;;;3.67;3.00;;;;;;;;6218457;22;45459;-91
2022/09/14 02:43:07;;;;;;;;;3.00;3.00;;;;;;;;6198375;22;45390;-90
2022/09/14 02:45:39;;;;;;;;;3.00;3.00;;;;;;;;6197104;22;48400;-91
2022/09/14 02:48:10;;;;;;;;;3.00;3.00;;;;;;;;6211280;22;45731;-91
2022/09/14 02:50:53;;;;;;;;;3.67;3.67;;;;;;;;6211496;22;45393;-91
2022/09/14 02:53:39;;;;;;;;;2.33;1.67;;;;;;;;6184294;22;45498;-91
2022/09/14 02:56:07;;;;;;;;;2.67;2.00;;;;;;;;6213867;22;45513;-91
2022/09/14 02:58:36;;;;;;;;;2.67;2.67;;;;;;;;6193327;22;45693;-90
2022/09/14 03:01:02;;;;;;;;;3.00;2.00;;;;;;;;6193746;22;45414;-91
2022/09/14 03:03:27;;;;;;;;;3.33;3.00;;;;;;;;6220905;22;45292;-91
2022/09/14 03:05:54;;;;;;;;;2.33;2.33;;;;;;;;6184266;22;48104;-92
2022/09/14 03:08:19;;;;;;;;;2.33;2.33;;;;;;;;6184124;22;45674;-92
2022/09/14 03:10:45;;;;;;;;;1.33;1.33;;;;;;;;6184110;22;45430;-90
2022/09/14 03:13:10;;;;;;;;;3.33;2.33;;;;;;;;6184155;22;45417;-91
2022/09/14 03:15:35;;;;;;;;;3.00;3.00;;;;;;;;6210434;22;45393;-90
2022/09/14 03:18:01;;;;;;;;;3.00;1.67;;;;;;;;6183537;22;45340;-91
2022/09/14 03:20:28;;;;;;;;;3.00;3.00;;;;;;;;6183875;22;45507;-91
2022/09/14 03:22:53;;;;;;;;;3.00;3.00;;;;;;;;6184025;22;45418;-91
2022/09/14 03:25:19;;;;;;;;;2.00;2.00;;;;;;;;6183808;22;48061;-90
2022/09/14 03:27:52;;;;;;;;;4.33;2.67;;;;;;;;6210806;22;45291;-91
2022/09/14 03:30:17;;;;;;;;;2.00;2.00;;;;;;;;6210745;22;45351;-91
2022/09/14 03:32:43;;;;;;;;;4.00;3.67;;;;;;;;6184499;22;45364;-92
2022/09/14 03:35:08;;;;;;;;;3.00;3.00;;;;;;;;6218946;22;45406;-92
2022/09/14 03:37:36;;;;;;;;;4.33;4.33;;;;;;;;6194064;22;45231;-92
2022/09/14 03:40:01;;;;;;;;;2.00;2.00;;;;;;;;6220986;22;45236;-92
2022/09/14 03:42:26;;;;;;;;;5.67;3.33;;;;;;;;6188683;22;45264;-92
2022/09/14 03:44:51;;;;;;;;;2.67;2.67;;;;;;;;6183396;22;47336;-91
2022/09/14 03:47:16;;;;;;;;;4.00;4.00;;;;;;;;6183388;22;45336;-92
2022/09/14 03:49:42;;;;;;;;;4.00;4.00;;;;;;;;6183769;22;45283;-91
2022/09/14 03:52:07;;;;;;;;;3.00;3.00;;;;;;;;6182794;22;45539;-91
2022/09/14 03:54:32;;;;;;;;;5.33;4.00;;;;;;;;6184347;22;47067;-91
2022/09/14 03:56:57;;;;;;;;;5.67;4.33;;;;;;;;6184341;22;45231;-91
2022/09/14 03:59:22;;;;;;;;;3.67;3.00;;;;;;;;6187352;22;45321;-91
2022/09/14 04:01:48;;;;;;;;;3.00;3.00;;;;;;;;6187860;22;45309;-92
2022/09/14 04:04:14;;;;;;;;;4.00;4.00;;;;;;;;6186013;22;47097;-92
2022/09/14 04:06:39;;;;;;;;;5.00;5.00;;;;;;;;6183809;22;45308;-91
2022/09/14 04:09:04;;;;;;;;;5.33;4.00;;;;;;;;6210706;22;45495;-92
2022/09/14 04:11:30;;;;;;;;;5.00;5.00;;;;;;;;6211826;22;45374;-91
2022/09/14 04:13:59;;;;;;;;;5.67;5.00;;;;;;;;6192279;22;47105;-91
2022/09/14 04:16:24;;;;;;;;;4.33;4.00;;;;;;;;6192650;22;45272;-91
2022/09/14 04:18:49;;;;;;;;;4.67;4.67;;;;;;;;6192611;22;45347;-92
2022/09/14 04:21:16;;;;;;;;;5.33;4.00;;;;;;;;6186308;22;45451;-92
2022/09/14 04:23:42;;;;;;;;;5.33;5.00;;;;;;;;6210829;22;46153;-92
2022/09/14 04:26:11;;;;;;;;;5.00;4.00;;;;;;;;6183566;22;45627;-92
2022/09/14 04:28:36;;;;;;;;;3.33;3.33;;;;;;;;6211131;22;45417;-91
2022/09/14 04:31:01;;;;;;;;;4.00;4.00;;;;;;;;6211615;22;45410;-92
2022/09/14 04:33:30;;;;;;;;;4.67;3.00;;;;;;;;6184502;22;47845;-91
2022/09/14 04:36:07;;;;;;;;;5.00;5.00;;;;;;;;6184996;22;45880;-92
2022/09/14 04:38:33;;;;;;;;;5.67;3.67;;;;;;;;6184752;22;45263;-91
2022/09/14 04:40:58;;;;;;;;;4.33;4.33;;;;;;;;6185433;22;45545;-92
2022/09/14 04:43:24;;;;;;;;;5.67;5.00;;;;;;;;6184637;22;48000;-91
2022/09/14 04:45:50;;;;;;;;;7.33;5.00;;;;;;;;6212419;22;45461;-91
2022/09/14 04:48:15;;;;;;;;;5.67;4.00;;;;;;;;6185642;22;45338;-92
2022/09/14 04:50:41;;;;;;;;;3.67;3.67;;;;;;;;6217998;22;45675;-92
2022/09/14 04:53:06;;;;;;;;;5.00;3.33;;;;;;;;6194681;22;46949;-92
2022/09/14 04:55:31;;;;;;;;;4.00;4.00;;;;;;;;6221938;22;45419;-92
2022/09/14 04:57:56;;;;;;;;;2.67;2.67;;;;;;;;6219166;22;45235;-92
2022/09/14 05:00:22;;;;;;;;;2.00;2.00;;;;;;;;6184252;22;45301;-92
2022/09/14 05:02:47;;;;;;;;;3.33;3.00;;;;;;;;6184349;22;46982;-92
2022/09/14 05:05:12;;;;;;;;;4.33;3.33;;;;;;;;6185283;22;45517;-92
2022/09/14 05:07:37;;;;;;;;;5.00;5.00;;;;;;;;6185384;22;45467;-93
2022/09/14 05:10:04;;;;;;;;;1.00;1.00;;;;;;;;6212241;22;45394;-92
2022/09/14 05:12:30;;;;;;;;;6.00;4.67;;;;;;;;6184248;22;47195;-92
2022/09/14 05:14:55;;;;;;;;;3.33;3.33;;;;;;;;6184555;22;45245;-92
2022/09/14 05:17:20;;;;;;;;;2.67;2.67;;;;;;;;6211907;22;45284;-93
2022/09/14 05:19:45;;;;;;;;;6.00;4.00;;;;;;;;6185292;22;45367;-93
2022/09/14 05:22:10;;;;;;;;;3.33;3.33;;;;;;;;6184642;22;47188;-91
2022/09/14 05:24:36;;;;;;;;;4.33;4.33;;;;;;;;6212541;22;45429;-91
2022/09/14 05:27:01;;;;;;;;;2.67;2.00;;;;;;;;6186049;22;45240;-93
2022/09/14 05:29:28;;;;;;;;;5.67;4.00;;;;;;;;6195438;22;45177;-92
2022/09/14 05:31:53;;;;;;;;;3.67;3.67;;;;;;;;6192855;22;47822;-92
2022/09/14 05:34:18;;;;;;;;;6.00;5.00;;;;;;;;6194325;22;45533;-92
2022/09/14 05:36:44;;;;;;;;;4.67;4.00;;;;;;;;6187769;22;45316;-92
2022/09/14 05:39:09;;;;;;;;;4.00;4.00;;;;;;;;6184295;22;45584;-92
2022/09/14 05:41:34;;;;;;;;;4.33;4.33;;;;;;;;6184662;22;47189;-92
2022/09/14 05:44:00;;;;;;;;;2.33;2.00;;;;;;;;6212077;22;45410;-93
2022/09/14 05:46:25;;;;;;;;;5.67;3.00;;;;;;;;6185561;22;45315;-93
2022/09/14 05:48:50;;;;;;;;;5.33;5.33;;;;;;;;6185203;22;45257;-93
2022/09/14 05:51:19;;;;;;;;;5.00;5.00;;;;;;;;6184862;22;47328;-92
2022/09/14 05:53:50;;;;;;;;;5.00;5.00;;;;;;;;6185523;22;46017;-92
2022/09/14 05:56:16;;;;;;;;;6.67;5.67;;;;;;;;6185319;22;45312;-92
2022/09/14 05:58:41;;;;;;;;;5.33;5.33;;;;;;;;6185270;22;45414;-91
2022/09/14 06:01:07;;;;;;;;;6.33;5.33;;;;;;;;6214427;22;46396;-92
2022/09/14 06:03:33;;;;;;;;;6.00;6.00;;;;;;;;6187821;22;45338;-92
2022/09/14 06:05:58;;;;;;;;;5.00;3.67;;;;;;;;6196653;22;45470;-91
2022/09/14 06:08:23;;;;;;;;;8.00;6.00;;;;;;;;6197610;22;45762;-91
2022/09/14 06:10:48;;;;;;;;;7.33;5.67;;;;;;;;6222012;22;45330;-93
2022/09/14 06:13:14;;;;;;;;;2.00;2.00;;;;;;;;6189260;22;45545;-93
2022/09/14 06:15:39;;;;;;;;;5.00;4.33;;;;;;;;6185108;22;45229;-93
2022/09/14 06:18:04;;;;;;;;;4.00;4.00;;;;;;;;6184963;22;45575;-93
2022/09/14 06:20:29;;;;;;;;;7.00;5.00;;;;;;;;6184905;22;47093;-92
2022/09/14 06:22:55;;;;;;;;;6.33;5.33;;;;;;;;6185447;22;45672;-95
2022/09/14 06:25:20;;;;;;;;;7.00;5.00;;;;;;;;6187024;22;45260;-94
2022/09/14 06:27:45;;;;;;;;;7.67;4.67;;;;;;;;6184958;22;45341;-90
2022/09/14 06:30:10;;;;;;;;;4.33;4.33;;;;;;;;6182845;22;47212;-89
2022/09/14 06:32:36;;;;;;;;;4.00;4.00;;;;;;;;6210983;22;45261;-88
2022/09/14 06:35:02;;;;;;;;;5.00;4.00;;;;;;;;6212918;22;45288;-88
2022/09/14 06:37:27;;;;;;;;;7.00;4.00;;;;;;;;6212670;22;45426;-90
2022/09/14 06:39:52;;;;;;;;;4.33;3.33;;;;;;;;6184818;22;48532;-90
2022/09/14 06:42:18;;;;;;;;;4.00;4.00;;;;;;;;6184054;22;45861;-89
2022/09/14 06:44:43;;;;;;;;;2.67;2.67;;;;;;;;6185331;22;45493;-89
2022/09/14 06:47:08;;;;;;;;;5.67;4.67;;;;;;;;6185082;22;45243;-88
2022/09/14 06:49:33;;;;;;;;;5.00;3.33;;;;;;;;6211971;22;46464;-89
2022/09/14 06:51:59;;;;;;;;;6.67;4.00;;;;;;;;6181995;22;45411;-89
2022/09/14 06:54:25;;;;;;;;;4.00;3.00;;;;;;;;6210858;22;45407;-88
2022/09/14 06:56:50;;;;;;;;;5.00;4.00;;;;;;;;6209703;22;45379;-88
2022/09/14 06:59:16;;;;;;;;;5.67;4.00;;;;;;;;6210109;22;45330;-87
2022/09/14 07:01:41;;;;;;;;;5.33;4.67;;;;;;;;6210058;22;45357;-88
2022/09/14 07:04:07;;;;;;;;;4.00;3.00;;;;;;;;6210171;22;45313;-88
2022/09/14 07:06:37;;;;;;;;;6.33;6.33;;;;;;;;6210735;22;45275;-87
2022/09/14 07:09:03;;;;;;;;;3.33;3.33;;;;;;;;6206319;22;45632;-88
2022/09/14 07:11:29;;;;;;;;;6.00;5.33;;;;;;;;6209285;22;45475;-89
2022/09/14 07:13:57;;;;;;;;;4.00;4.00;;;;;;;;6206876;22;45294;-88
2022/09/14 07:16:23;;;;;;;;;5.33;4.67;;;;;;;;6182394;22;45357;-88
2022/09/14 07:18:51;;;;;;;;;4.67;4.33;;;;;;;;6209778;22;46276;-89
2022/09/14 07:21:17;;;;;;;;;5.33;4.67;;;;;;;;6210599;22;45306;-87
2022/09/14 07:23:43;;;;;;;;;3.00;3.00;;;;;;;;6210118;22;45596;-88
2022/09/14 07:26:10;;;;;;;;;6.00;4.67;;;;;;;;6210342;22;45460;-90
2022/09/14 07:28:36;;;;;;;;;2.67;2.67;;;;;;;;6181089;22;48387;-88
2022/09/14 07:31:01;;;;;;;;;6.67;5.67;;;;;;;;6207818;22;45370;-91
2022/09/14 07:33:27;;;;;;;;;6.00;5.00;;;;;;;;6182789;22;45423;-89
2022/09/14 07:35:52;;;;;;;;;7.33;5.33;;;;;;;;6183860;22;45356;-86
2022/09/14 07:38:18;;;;;;;;;6.33;5.00;;;;;;;;6183280;22;46928;-86
2022/09/14 07:40:43;;;;;;;;;8.67;6.00;;;;;;;;6182374;22;45517;-86
2022/09/14 07:43:09;;;;;;;;;7.67;5.33;;;;;;;;6180867;22;45407;-84
2022/09/14 07:45:35;;;;;;;;;8.33;4.00;;;;;;;;6181927;22;45225;-86
2022/09/14 07:48:00;;;;;;;;;4.00;4.00;;;;;;;;6211657;22;45284;-85
2022/09/14 07:50:26;;;;;;;;;6.00;5.33;;;;;;;;6215272;22;45363;-86
2022/09/14 07:52:51;;;;;;;;;5.33;5.33;;;;;;;;6214724;22;45457;-84
2022/09/14 07:55:16;;;;;;;;;6.67;6.67;;;;;;;;6186965;22;45339;-85
2022/09/14 07:57:42;;;;;;;;;7.67;6.67;;;;;;;;6186702;22;48114;-86
2022/09/14 08:00:08;;;;;;;;;8.00;6.67;;;;;;;;6179329;22;45596;-88
2022/09/14 08:02:33;;;;;;;;;4.67;4.67;;;;;;;;6185610;22;45320;-87
2022/09/14 08:04:58;;;;;;;;;7.00;4.33;;;;;;;;6214247;22;45419;-88
2022/09/14 08:07:24;;;;;;;;;4.33;4.33;;;;;;;;6183383;22;47960;-87
2022/09/14 08:09:49;;;;;;;;;4.67;4.67;;;;;;;;6210644;22;45465;-88
2022/09/14 08:12:17;;;;;;;;;5.00;5.00;;;;;;;;6182360;22;45417;-88
2022/09/14 08:14:42;;;;;;;;;5.33;5.33;;;;;;;;6210352;22;45375;-87
2022/09/14 08:17:09;;;;;;;;;5.67;3.67;;;;;;;;6182369;22;47480;-89
2022/09/14 08:19:34;;;;;;;;;4.67;4.67;;;;;;;;6209078;22;45577;-93
2022/09/14 08:22:00;;;;;;;;;7.00;6.00;;;;;;;;6183038;22;45340;-90
2022/09/14 08:24:28;;;;;;;;;6.00;5.33;;;;;;;;6214419;22;45298;-89
2022/09/14 08:26:54;;;;;;;;;3.67;3.67;;;;;;;;6186146;22;46102;-89
2022/09/14 08:29:19;;;;;;;;;5.67;5.67;;;;;;;;6212648;22;45342;-89
2022/09/14 08:31:45;;;;;;;;;6.67;5.67;;;;;;;;6187438;22;45633;-89
2022/09/14 08:34:11;;;;;;;;;5.67;5.00;;;;;;;;6185304;22;45362;-89
2022/09/14 08:36:38;;;;;;;;;4.00;4.00;;;;;;;;6212610;22;46587;-88
2022/09/14 08:39:05;;;;;;;;;4.67;4.00;;;;;;;;6184910;22;45386;-89
2022/09/14 08:41:42;;;;;;;;;7.67;4.67;;;;;;;;6211475;22;45358;-89
2022/09/14 08:44:10;;;;;;;;;4.33;4.33;;;;;;;;6209929;22;45515;-89
2022/09/14 08:46:46;;;;;;;;;4.67;4.00;;;;;;;;6183716;22;48419;-90
2022/09/14 08:49:19;;;;;;;;;5.00;3.67;;;;;;;;6211571;22;45291;-90
2022/09/14 08:51:44;;;;;;;;;3.33;3.33;;;;;;;;6210468;22;45747;-91
2022/09/14 08:54:10;;;;;;;;;4.00;4.00;;;;;;;;6211725;22;45438;-91
2022/09/14 08:56:38;;;;;;;;;6.33;6.33;;;;;;;;6212007;22;46029;-91
2022/09/14 08:59:06;;;;;;;;;8.00;5.33;;;;;;;;6184074;22;45991;-92
2022/09/14 09:01:32;;;;;;;;;5.33;4.33;;;;;;;;6212156;22;45582;-92
2022/09/14 09:04:18;;;;;;;;;6.33;6.00;;;;;;;;6187348;22;45601;-92
2022/09/14 09:06:59;;;;;;;;;5.33;4.00;;;;;;;;6193588;22;46333;-92
2022/09/14 09:09:31;;;;;;;;;3.33;2.33;;;;;;;;6192609;22;45231;-92
2022/09/14 09:11:56;;;;;;;;;4.33;3.00;;;;;;;;6219469;22;45302;-92
2022/09/14 09:14:34;;;;;;;;;3.33;3.33;;;;;;;;6183820;22;45386;-91
2022/09/14 09:17:18;;;;;;;;;3.33;3.33;;;;;;;;6200899;22;45542;-91
2022/09/14 09:19:50;;;;;;;;;4.33;4.33;;;;;;;;6182611;22;45898;-92
2022/09/14 09:22:18;;;;;;;;;6.00;4.00;;;;;;;;6183537;22;45691;-92
2022/09/14 09:24:47;;;;;;;;;2.00;2.00;;;;;;;;6214427;22;45411;-91
2022/09/14 09:27:13;;;;;;;;;4.00;4.00;;;;;;;;6192919;22;47004;-95
2022/09/14 09:29:39;;;;;;;;;3.33;3.33;;;;;;;;6192963;22;45557;-91
2022/09/14 09:32:06;;;;;;;;;2.67;2.67;;;;;;;;6217201;22;45546;-92
2022/09/14 09:34:32;;;;;;;;;2.00;2.00;;;;;;;;6193955;22;45396;-91
2022/09/14 09:36:59;;;;;;;;;3.33;3.33;;;;;;;;6218805;22;45376;-92
2022/09/14 09:39:25;;;;;;;;;3.67;3.67;;;;;;;;6189175;22;45565;-91
2022/09/14 09:41:59;;;;;;;;;4.00;3.00;;;;;;;;6226911;22;45243;-92
2022/09/14 09:44:24;;;;;;;;;5.67;5.00;;;;;;;;6201392;22;45303;-93
2022/09/14 09:46:52;;;;;;;;;2.00;2.00;;;;;;;;6228514;22;46165;-91
2022/09/14 09:49:20;;;;;;;;;2.33;2.00;;;;;;;;6221946;22;45390;-92
2022/09/14 09:51:46;;;;;;;;;1.00;1.00;;;;;;;;6220027;22;45298;-91
2022/09/14 09:54:11;;;;;;;;;3.00;2.00;;;;;;;;6211594;22;45543;-91
2022/09/14 09:56:38;;;;;;;;;3.75;3.00;;;;;;;;6210730;22;45489;-91
2022/09/14 09:59:19;;;;;;;;;3.00;2.00;;;;;;;;6182894;22;45343;-92
2022/09/14 10:01:45;;;;;;;;;1.00;1.00;;;;;;;;6210233;22;45776;-93
2022/09/14 10:04:17;;;;;;;;;3.67;2.33;;;;;;;;6211160;22;45339;-91
2022/09/14 10:06:47;;;;;;;;;2.00;2.00;;;;;;;;6210625;22;45407;-92
2022/09/14 10:09:19;;;;;;;;;2.00;2.00;;;;;;;;6184287;22;45628;-93
2022/09/14 10:11:46;;;;;;;;;4.33;3.00;;;;;;;;6211081;22;45306;-91
2022/09/14 10:14:32;;;;;;;;;5.00;5.00;;;;;;;;6210224;22;45713;-90
2022/09/14 10:17:05;;;;;;;;;2.00;2.00;;;;;;;;6185633;22;48072;-90
2022/09/14 10:19:31;;;;;;;;;3.33;2.33;;;;;;;;6222150;22;45251;-91
2022/09/14 10:22:04;;;;;;;;;3.33;3.00;;;;;;;;6218302;22;45469;-89
2022/09/14 10:24:31;;;;;;;;;2.33;2.33;;;;;;;;6196790;22;45598;-90
2022/09/14 10:26:56;;;;;;;;;2.00;2.00;;;;;;;;6187727;22;48120;-89
2022/09/14 10:29:33;;;;;;;;;3.00;3.00;;;;;;;;6212884;22;45676;-89
2022/09/14 10:32:01;;;;;;;;;4.33;3.33;;;;;;;;6188136;22;45403;-91
2022/09/14 10:34:27;;;;;;;;;2.33;2.33;;;;;;;;6211674;22;45295;-96
2022/09/14 10:36:57;;;;;;;;;2.33;2.33;;;;;;;;6210345;22;45406;-90
2022/09/14 10:39:34;;;;;;;;;3.00;3.00;;;;;;;;6184077;22;45394;-91
2022/09/14 10:42:06;;;;;;;;;2.33;2.00;;;;;;;;6209802;22;45562;-93
2022/09/14 10:44:50;;;;;;;;;3.00;3.00;;;;;;;;6215991;22;45434;-96
2022/09/14 10:47:15;;;;;;;;;2.00;2.00;;;;;;;;6211418;22;45386;-96
2022/09/14 10:49:46;;;;;;;;;2.33;2.33;;;;;;;;6217375;22;45309;-90
2022/09/14 10:52:21;;;;;;;;;4.67;4.00;;;;;;;;6184261;22;45519;-93
2022/09/14 10:54:55;;;;;;;;;2.00;2.00;;;;;;;;6190736;22;45471;-90
2022/09/14 10:57:29;;;;;;;;;2.00;2.00;;;;;;;;6212494;22;45862;-89
2022/09/14 11:00:02;;;;;;;;;1.67;1.33;;;;;;;;6217410;22;45276;-89
2022/09/14 11:02:41;;;;;;;;;2.00;2.00;;;;;;;;6209944;22;45748;-89
2022/09/14 11:05:15;;;;;;;;;2.67;2.67;;;;;;;;6209466;22;45310;-90
2022/09/14 11:07:43;;;;;;;;;3.00;2.00;;;;;;;;6182943;22;48126;-91
2022/09/14 11:10:24;;;;;;;;;3.00;3.00;;;;;;;;6182124;22;45346;-90
2022/09/14 11:12:49;;;;;;;;;1.33;1.33;;;;;;;;6209842;22;45402;-89
2022/09/14 11:15:30;;;;;;;;;2.67;2.67;;;;;;;;6185807;22;45662;-88
2022/09/14 11:20:34;;;;;;;;;2.00;2.00;;;;;;;;6228874;22;45227;-88
2022/09/14 11:25:45;;;;;;;;;2.50;2.50;;;;;;;;6162118;22;45903;-92
2022/09/14 11:28:17;;;;;;;;;2.00;1.67;;;;;;;;6142305;23;45490;-86
2022/09/14 11:30:51;;;;;;;;;2.00;2.00;;;;;;;;6120184;23;44783;-88
2022/09/14 11:33:21;;;;;;;;;3.00;3.00;;;;;;;;6135407;23;45301;-87
2022/09/14 11:36:02;;;;;;;;;1.67;1.67;;;;;;;;6129716;23;45517;-88
2022/09/14 11:38:29;;;;;;;;;2.33;1.33;;;;;;;;6127970;23;45671;-87
2022/09/14 11:40:59;;;;;;;;;2.00;2.00;;;;;;;;6120882;23;45316;-87
2022/09/14 11:43:56;;;;;;;;;3.00;2.33;;;;;;;;6088290;23;45737;-86
2022/09/14 11:46:40;;;;;;;;;2.00;2.00;;;;;;;;6034855;23;45890;-87
2022/09/14 11:49:27;;;;;;;;;6.00;1.67;;;;;;;;6027791;23;45680;-87
2022/09/14 11:52:19;;;;;;;;;1.00;1.00;;;;;;;;6028534;23;45426;-87
2022/09/14 11:54:45;;;;;;;;;1.33;1.00;;;;;;;;6027842;23;45549;-87
2022/09/14 11:57:16;;;;;;;;;1.00;1.00;;;;;;;;6028030;23;45815;-87
2022/09/14 11:59:42;;;;;;;;;2.67;2.00;;;;;;;;6034694;23;45644;-90
2022/09/14 12:02:29;;;;;;;;;2.00;2.00;;;;;;;;6041759;23;45374;-90
2022/09/14 12:05:03;;;;;;;;;1.00;1.00;;;;;;;;6037436;23;45303;-90
2022/09/14 12:10:11;;;;;;;;;2.00;2.00;;;;;;;;6027284;23;46039;-86
2022/09/14 12:12:37;;;;;;;;;2.00;2.00;;;;;;;;6028303;23;45507;-85
2022/09/14 12:15:03;;;;;;;;;1.67;1.67;;;;;;;;6028645;23;45756;-86
2022/09/14 12:17:33;;;;;;;;;3.00;2.00;;;;;;;;6028018;23;45327;-86
2022/09/14 12:20:18;;;;;;;;;1.00;1.00;;;;;;;;6028578;23;45505;-85
2022/09/14 12:22:43;;;;;;;;;0.00;0.00;;;;;;;;6100466;23;45784;-85
2022/09/14 12:25:08;;;;;;;;;0.67;0.67;;;;;;;;6119658;23;45371;-86
2022/09/14 12:27:35;;;;;;;;;0.25;0.25;;;;;;;;6119915;23;45458;-84
2022/09/14 12:30:00;;;;;;;;;3.00;1.33;;;;;;;;6119344;23;46486;-85
2022/09/14 12:32:36;;;;;;;;;1.00;1.00;;;;;;;;6120171;23;45521;-85
2022/09/14 12:35:20;;;;;;;;;1.00;1.00;;;;;;;;6094132;23;45364;-85
2022/09/14 12:37:45;;;;;;;;;0.00;0.00;;;;;;;;6119977;23;45606;-85
2022/09/14 12:40:20;;;;;;;;;1.00;1.00;;;;;;;;6121451;23;45277;-86
2022/09/14 12:42:45;;;;;;;;;2.33;1.00;;;;;;;;6093361;23;45829;-86
2022/09/14 12:45:29;;;;;;;;;0.67;0.67;;;;;;;;6092970;23;45307;-85
2022/09/14 12:47:54;;;;;;;;;1.67;1.67;;;;;;;;6118052;23;45360;-85
2022/09/14 12:50:21;;;;;;;;;0.00;0.00;;;;;;;;6119535;23;46457;-86
2022/09/14 12:52:52;;;;;;;;;0.00;0.00;;;;;;;;6120269;23;45400;-86
2022/09/14 12:55:20;;;;;;;;;2.00;2.00;;;;;;;;6120179;23;45304;-85
2022/09/14 12:58:01;;;;;;;;;2.00;0.00;;;;;;;;6091925;23;45953;-85
2022/09/14 13:00:28;;;;;;;;;0.33;0.33;;;;;;;;6092241;23;47420;-87
2022/09/14 13:02:56;;;;;;;;;0.00;0.00;;;;;;;;6120548;23;45360;-85
2022/09/14 13:05:23;;;;;;;;;0.00;0.00;;;;;;;;6092733;23;45383;-85
2022/09/14 13:07:49;;;;;;;;;1.67;1.00;;;;;;;;6121729;23;45401;-86
2022/09/14 13:10:30;;;;;;;;;0.00;0.00;;;;;;;;6122656;23;46276;-85
2022/09/14 13:12:56;;;;;;;;;0.00;0.00;;;;;;;;6099355;23;45403;-84
2022/09/14 13:15:32;;;;;;;;;0.00;0.00;;;;;;;;6095817;23;45406;-85
2022/09/14 13:18:05;;;;;;;;;2.00;1.00;;;;;;;;6122626;23;45353;-85
2022/09/14 13:20:32;;;;;;;;;1.00;0.00;;;;;;;;6094373;23;47939;-85
2022/09/14 13:22:57;;;;;;;;;0.00;0.00;;;;;;;;6129056;23;45383;-85
2022/09/14 13:25:28;;;;;;;;;1.00;0.00;;;;;;;;6129313;23;45356;-84
2022/09/14 13:27:54;;;;;;;;;0.67;0.67;;;;;;;;6101170;23;45270;-85
2022/09/14 13:30:20;;;;;;;;;0.00;0.00;;;;;;;;6125538;23;46241;-86
2022/09/14 13:32:48;;;;;;;;;0.67;0.00;;;;;;;;6100421;23;45402;-85
2022/09/14 13:35:39;;;;;;;;;2.00;1.00;;;;;;;;6128064;23;45416;-85
2022/09/14 13:38:07;;;;;;;;;0.00;0.00;;;;;;;;6121694;23;45349;-85
2022/09/14 13:40:33;;;;;;;;;1.67;0.00;;;;;;;;6128442;23;46072;-85
2022/09/14 13:42:58;;;;;;;;;0.00;0.00;;;;;;;;6126821;23;45581;-85
2022/09/14 13:45:24;;;;;;;;;0.00;0.00;;;;;;;;6121411;23;45559;-84
2022/09/14 13:47:49;;;;;;;;;0.00;0.00;;;;;;;;6119669;23;45465;-86
2022/09/14 13:50:15;;;;;;;;;0.00;0.00;;;;;;;;6118221;23;46413;-86
2022/09/14 13:52:41;;;;;;;;;0.00;0.00;;;;;;;;6119077;23;45332;-92
2022/09/14 13:55:21;;;;;;;;;0.00;0.00;;;;;;;;6122255;23;45277;-92
2022/09/14 13:58:05;;;;;;;;;0.00;0.00;;;;;;;;6122498;23;45289;-96
2022/09/14 14:00:31;;;;;;;;;0.00;0.00;;;;;;;;6122986;23;46346;-94
2022/09/14 14:03:03;;;;;;;;;0.00;0.00;;;;;;;;6120810;23;45374;-90
2022/09/14 14:05:29;;;;;;;;;1.00;1.00;;;;;;;;6118602;23;45800;-89
2022/09/14 14:07:56;;;;;;;;;0.00;0.00;;;;;;;;6120594;23;45355;-92
2022/09/14 14:10:23;;;;;;;;;0.00;0.00;;;;;;;;6120483;23;45375;-92
2022/09/14 14:12:49;;;;;;;;;0.00;0.00;;;;;;;;6095384;23;45581;-85
2022/09/14 14:15:17;;;;;;;;;1.00;1.00;;;;;;;;6122906;23;45380;-92
2022/09/14 14:17:42;;;;;;;;;0.00;0.00;;;;;;;;6103024;23;45378;-91
2022/09/14 14:20:23;;;;;;;;;0.67;0.00;;;;;;;;6096152;23;48194;-90
2022/09/14 14:22:57;;;;;;;;;1.00;1.00;;;;;;;;6093516;23;45377;-87
2022/09/14 14:25:33;;;;;;;;;0.00;0.00;;;;;;;;6093186;23;45651;-85
2022/09/14 14:28:03;;;;;;;;;0.00;0.00;;;;;;;;6119397;23;45495;-86
2022/09/14 14:30:29;;;;;;;;;0.00;0.00;;;;;;;;6093837;23;48231;-85
2022/09/14 14:32:55;;;;;;;;;0.00;0.00;;;;;;;;6097134;23;45488;-88
2022/09/14 14:35:22;;;;;;;;;0.00;0.00;;;;;;;;6093519;23;45455;-88
2022/09/14 14:37:47;;;;;;;;;0.00;0.00;;;;;;;;6120540;23;45675;-87
2022/09/14 14:40:13;;;;;;;;;0.00;0.00;;;;;;;;6119924;23;46187;-87
2022/09/14 14:42:39;;;;;;;;;0.00;0.00;;;;;;;;6119568;23;45584;-87
2022/09/14 14:45:05;;;;;;;;;0.00;0.00;;;;;;;;6120290;23;45296;-86
2022/09/14 14:47:31;;;;;;;;;0.00;0.00;;;;;;;;6120506;23;45431;-85
2022/09/14 14:49:56;;;;;;;;;1.67;0.00;;;;;;;;6097719;23;47860;-86
2022/09/14 14:52:21;;;;;;;;;0.00;0.00;;;;;;;;6125559;23;45225;-87
2022/09/14 14:54:46;;;;;;;;;0.00;0.00;;;;;;;;6121534;23;45238;-87
2022/09/14 14:57:12;;;;;;;;;0.00;0.00;;;;;;;;6120169;23;45390;-87